createdAt,value
2022-10-06T00:00:53.057Z,0.45
2022-10-06T00:03:55.081Z,0.85
2022-10-06T00:06:57.499Z,0.83
2022-10-06T00:09:59.470Z,0.75
2022-10-06T00:13:02.280Z,0.30
2022-10-06T00:16:12.869Z,0.82
2022-10-06T00:19:14.824Z,0.30
2022-10-06T00:22:16.806Z,0.63
2022-10-06T00:25:21.030Z,0.30
2022-10-06T00:28:23.014Z,0.40
2022-10-06T00:31:25.119Z,0.65
2022-10-06T00:34:27.111Z,0.52
2022-10-06T00:37:33.754Z,0.20
2022-10-06T00:40:35.777Z,0.65
2022-10-06T00:43:42.915Z,0.40
2022-10-06T00:46:47.961Z,0.15
2022-10-06T00:49:50.782Z,0.47
2022-10-06T00:52:52.748Z,0.53
2022-10-06T00:55:54.614Z,0.20
2022-10-06T00:58:56.908Z,0.55
2022-10-06T01:02:07.622Z,0.38
2022-10-06T01:05:15.155Z,1.40
2022-10-06T01:08:18.929Z,0.20
2022-10-06T01:11:21.097Z,0.45
2022-10-06T01:14:24.680Z,0.10
2022-10-06T01:17:46.150Z,0.47
2022-10-06T01:20:59.910Z,0.35
2022-10-06T01:24:03.448Z,0.60
2022-10-06T01:27:08.957Z,0.38
2022-10-06T01:30:15.738Z,0.80
2022-10-06T01:33:17.931Z,0.47
2022-10-06T01:36:21.417Z,0.20
2022-10-06T01:39:25.776Z,0.90
2022-10-06T01:42:31.808Z,0.65
2022-10-06T01:45:33.820Z,0.30
2022-10-06T01:48:37.010Z,0.10
2022-10-06T01:51:38.939Z,0.60
2022-10-06T01:54:41.030Z,0.70
2022-10-06T01:57:43.525Z,0.10
2022-10-06T02:00:46.889Z,0.40
2022-10-06T02:03:49.427Z,0.22
2022-10-06T02:06:51.725Z,0.28
2022-10-06T02:09:53.640Z,0.80
2022-10-06T02:12:55.947Z,0.22
2022-10-06T02:15:58.277Z,0.47
2022-10-06T02:19:00.337Z,0.50
2022-10-06T02:22:02.722Z,0.52
2022-10-06T02:25:05.045Z,0.20
2022-10-06T02:28:07.471Z,0.25
2022-10-06T02:31:10.415Z,0.60
2022-10-06T02:34:14.475Z,0.30
2022-10-06T02:37:16.926Z,0.93
2022-10-06T02:40:18.960Z,0.20
2022-10-06T02:43:21.449Z,0.70
2022-10-06T02:46:24.367Z,0.65
2022-10-06T02:49:27.221Z,0.28
2022-10-06T02:52:36.792Z,0.73
2022-10-06T02:55:41.111Z,0.67
2022-10-06T02:58:44.923Z,0.50
2022-10-06T03:01:52.564Z,0.40
2022-10-06T03:04:54.633Z,0.52
2022-10-06T03:07:56.890Z,0.40
2022-10-06T03:11:01.046Z,0.40
2022-10-06T03:14:04.385Z,0.70
2022-10-06T03:17:09.303Z,0.57
2022-10-06T03:20:14.984Z,0.37
2022-10-06T03:23:18.180Z,0.25
2022-10-06T03:26:23.186Z,0.43
2022-10-06T03:29:25.241Z,0.50
2022-10-06T03:32:30.047Z,0.43
2022-10-06T03:35:32.176Z,0.40
2022-10-06T03:38:34.939Z,0.45
2022-10-06T03:41:38.577Z,0.68
2022-10-06T03:44:42.006Z,0.50
2022-10-06T03:47:43.880Z,0.57
2022-10-06T03:50:54.490Z,1.00
2022-10-06T03:53:57.415Z,0.35
2022-10-06T03:57:00.036Z,0.30
2022-10-06T04:00:02.909Z,0.35
2022-10-06T04:03:18.923Z,0.38
2022-10-06T04:06:21.638Z,0.73
2022-10-06T04:09:23.743Z,1.00
2022-10-06T04:12:26.469Z,0.30
2022-10-06T04:15:28.780Z,0.50
2022-10-06T04:18:31.262Z,0.65
2022-10-06T04:21:39.503Z,0.43
2022-10-06T04:24:44.017Z,0.30
2022-10-06T04:27:46.121Z,0.90
2022-10-06T04:31:00.527Z,0.73
2022-10-06T04:34:03.600Z,0.55
2022-10-06T04:37:05.831Z,0.32
2022-10-06T04:40:09.527Z,0.40
2022-10-06T04:43:13.480Z,0.90
2022-10-06T04:46:41.539Z,0.10
2022-10-06T04:49:41.426Z,0.28
2022-10-06T04:52:43.718Z,0.40
2022-10-06T04:55:45.735Z,0.57
2022-10-06T04:58:50.742Z,0.57
2022-10-06T05:01:55.284Z,0.22
2022-10-06T05:04:58.852Z,0.70
2022-10-06T05:08:00.858Z,0.50
2022-10-06T05:11:12.559Z,0.35
2022-10-06T05:14:17.220Z,0.63
2022-10-06T05:17:22.363Z,0.32
2022-10-06T05:20:26.759Z,0.43
2022-10-06T05:23:30.377Z,0.75
2022-10-06T05:26:34.753Z,0.82
2022-10-06T05:29:39.361Z,1.10
2022-10-06T05:32:46.378Z,0.68
2022-10-06T05:35:57.631Z,0.40
2022-10-06T05:39:00.013Z,0.95
2022-10-06T05:42:04.613Z,1.13
2022-10-06T05:45:07.598Z,0.50
2022-10-06T05:48:09.581Z,0.93
2022-10-06T05:51:11.941Z,0.60
2022-10-06T05:54:14.452Z,1.40
2022-10-06T05:57:16.567Z,0.95
2022-10-06T06:00:19.250Z,1.40
2022-10-06T06:03:21.428Z,0.80
2022-10-06T06:06:29.681Z,0.47
2022-10-06T06:09:34.869Z,0.28
2022-10-06T06:12:38.729Z,0.43
2022-10-06T06:16:12.456Z,0.57
2022-10-06T06:19:15.427Z,0.70
2022-10-06T06:22:19.061Z,0.30
2022-10-06T06:25:23.522Z,0.73
2022-10-06T06:28:26.039Z,0.68
2022-10-06T06:31:36.517Z,0.45
2022-10-06T06:34:38.649Z,0.75
2022-10-06T06:37:42.322Z,0.90
2022-10-06T06:40:45.476Z,0.38
2022-10-06T06:43:50.234Z,0.50
2022-10-06T06:47:04.659Z,0.77
2022-10-06T06:50:10.353Z,0.45
2022-10-06T06:53:16.287Z,0.93
2022-10-06T06:56:23.787Z,0.68
2022-10-06T06:59:26.532Z,0.40
2022-10-06T07:02:30.944Z,0.57
2022-10-06T07:05:33.201Z,0.90
2022-10-06T07:08:37.798Z,0.43
2022-10-06T07:11:40.573Z,0.50
2022-10-06T07:15:04.856Z,0.73
2022-10-06T07:18:32.097Z,0.82
2022-10-06T07:21:53.336Z,0.63
2022-10-06T07:25:11.699Z,0.67
2022-10-06T07:28:20.625Z,0.85
2022-10-06T07:31:23.027Z,0.60
2022-10-06T07:34:25.069Z,0.35
2022-10-06T07:37:28.996Z,0.70
2022-10-06T07:40:33.594Z,0.60
2022-10-06T07:43:35.552Z,0.47
2022-10-06T07:46:37.737Z,0.88
2022-10-06T07:49:50.908Z,0.50
2022-10-06T07:52:52.942Z,0.82
2022-10-06T07:55:54.907Z,1.10
2022-10-06T07:58:59.473Z,0.55
2022-10-06T08:02:01.672Z,0.90
2022-10-06T08:05:04.400Z,0.30
2022-10-06T08:08:06.856Z,0.50
2022-10-06T08:11:09.715Z,1.13
2022-10-06T08:14:12.061Z,0.50
2022-10-06T08:17:14.020Z,0.75
2022-10-06T08:20:17.845Z,0.55
2022-10-06T08:23:19.881Z,0.70
2022-10-06T08:26:23.206Z,1.40
2022-10-06T08:29:25.332Z,0.40
2022-10-06T08:32:27.308Z,0.57
2022-10-06T08:35:31.153Z,0.85
2022-10-06T08:38:33.036Z,0.73
2022-10-06T08:41:48.625Z,0.90
2022-10-06T08:44:58.200Z,0.88
2022-10-06T08:48:04.005Z,1.10
2022-10-06T08:51:43.446Z,1.00
2022-10-06T08:55:03.648Z,1.25
2022-10-06T08:58:14.719Z,0.30
2022-10-06T09:01:25.843Z,0.70
2022-10-06T09:04:32.202Z,0.80
2022-10-06T09:08:02.388Z,1.10
2022-10-06T09:11:10.403Z,1.27
2022-10-06T09:14:15.497Z,1.27
2022-10-06T09:17:29.436Z,0.60
2022-10-06T09:20:43.289Z,0.60
2022-10-06T09:23:53.376Z,1.02
2022-10-06T09:26:58.495Z,0.68
2022-10-06T09:30:01.678Z,1.47
2022-10-06T09:33:05.911Z,0.80
2022-10-06T09:36:09.914Z,1.77
2022-10-06T09:39:22.401Z,1.40
2022-10-06T09:42:29.710Z,0.60
2022-10-06T09:45:31.711Z,1.00
2022-10-06T09:48:33.575Z,1.20
2022-10-06T09:51:36.514Z,0.98
2022-10-06T09:54:41.851Z,1.20
2022-10-06T09:57:52.458Z,0.65
2022-10-06T10:00:57.546Z,1.00
2022-10-06T10:04:22.679Z,1.40
2022-10-06T10:07:28.790Z,1.13
2022-10-06T10:10:30.838Z,1.13
2022-10-06T10:13:42.709Z,1.05
2022-10-06T10:16:46.838Z,0.67
2022-10-06T10:19:53.845Z,1.43
2022-10-06T10:22:58.581Z,0.90
2022-10-06T10:26:21.001Z,0.82
2022-10-06T10:29:49.124Z,0.90
2022-10-06T10:33:12.344Z,0.87
2022-10-06T10:36:16.870Z,1.00
2022-10-06T10:39:32.411Z,1.02
2022-10-06T10:43:10.599Z,0.95
2022-10-06T10:46:30.882Z,1.13
2022-10-06T10:49:34.518Z,1.00
2022-10-06T10:52:41.641Z,0.67
2022-10-06T10:55:47.147Z,1.13
2022-10-06T10:58:53.552Z,1.08
2022-10-06T11:02:05.142Z,0.90
2022-10-06T11:05:30.450Z,0.97
2022-10-06T11:08:45.527Z,0.77
2022-10-06T11:12:09.218Z,0.77
2022-10-06T11:15:31.455Z,0.68
2022-10-06T11:18:42.859Z,0.77
2022-10-06T11:22:11.764Z,1.07
2022-10-06T11:25:46.619Z,0.77
2022-10-06T11:29:01.104Z,0.80
2022-10-06T11:32:24.587Z,1.00
2022-10-06T11:35:29.066Z,1.38
2022-10-06T11:38:42.406Z,1.00
2022-10-06T11:41:51.139Z,0.87
2022-10-06T11:45:05.904Z,0.52
2022-10-06T11:48:10.278Z,0.80
2022-10-06T11:51:24.731Z,0.77
2022-10-06T11:54:54.802Z,0.70
2022-10-06T11:58:23.487Z,0.77
2022-10-06T12:01:31.150Z,0.75
2022-10-06T12:04:33.170Z,0.82
2022-10-06T12:07:56.784Z,0.75
2022-10-06T12:10:58.802Z,0.40
2022-10-06T12:15:26.873Z,0.80
2022-10-06T12:17:27.274Z,0.60
2022-10-06T12:20:47.771Z,0.55
2022-10-06T12:24:11.372Z,0.90
2022-10-06T12:27:34.616Z,1.00
2022-10-06T12:31:14.512Z,0.77
2022-10-06T12:34:58.120Z,0.30
2022-10-06T12:38:05.416Z,0.52
2022-10-06T12:41:14.611Z,0.63
2022-10-06T12:44:26.366Z,0.50
2022-10-06T12:47:40.592Z,0.60
2022-10-06T12:50:45.245Z,0.52
2022-10-06T12:54:34.934Z,0.40
2022-10-06T12:57:52.094Z,0.60
2022-10-06T13:01:00.158Z,0.73
2022-10-06T13:04:02.397Z,0.50
2022-10-06T13:07:15.202Z,0.50
2022-10-06T13:10:21.606Z,0.70
2022-10-06T13:13:25.184Z,0.57
2022-10-06T13:16:31.564Z,0.53
2022-10-06T13:19:35.665Z,0.70
2022-10-06T13:22:37.844Z,0.57
2022-10-06T13:25:50.265Z,0.70
2022-10-06T13:28:57.030Z,0.60
2022-10-06T13:31:59.071Z,0.60
2022-10-06T13:35:01.494Z,0.60
2022-10-06T13:38:06.207Z,0.57
2022-10-06T13:41:30.348Z,1.00
2022-10-06T13:44:42.861Z,0.65
2022-10-06T13:47:44.829Z,0.90
2022-10-06T13:50:49.466Z,0.70
2022-10-06T13:53:52.036Z,0.93
2022-10-06T13:56:53.957Z,0.70
2022-10-06T14:00:23.728Z,0.52
2022-10-06T14:03:39.511Z,1.30
2022-10-06T14:06:53.682Z,0.50
2022-10-06T14:09:55.755Z,0.52
2022-10-06T14:13:01.882Z,0.60
2022-10-06T14:16:09.578Z,0.95
2022-10-06T14:19:33.456Z,0.57
2022-10-06T14:22:39.527Z,0.47
2022-10-06T14:25:41.432Z,1.08
2022-10-06T14:28:51.475Z,1.50
2022-10-06T14:31:53.670Z,0.80
2022-10-06T14:34:55.692Z,1.00
2022-10-06T14:37:57.580Z,0.67
2022-10-06T14:41:02.950Z,0.70
2022-10-06T14:44:09.640Z,0.77
2022-10-06T14:47:11.666Z,0.47
2022-10-06T14:50:13.970Z,0.40
2022-10-06T14:53:17.264Z,0.60
2022-10-06T14:56:19.227Z,1.00
2022-10-06T14:59:21.648Z,0.60
2022-10-06T15:02:23.886Z,0.93
2022-10-06T15:05:25.811Z,0.80
2022-10-06T15:08:28.121Z,1.27
2022-10-06T15:11:30.296Z,1.13
2022-10-06T15:14:39.356Z,1.45
2022-10-06T15:17:42.300Z,1.20
2022-10-06T15:20:47.327Z,1.43
2022-10-06T15:23:55.490Z,1.30
2022-10-06T15:27:16.045Z,1.08
2022-10-06T15:30:18.814Z,0.90
2022-10-06T15:33:20.853Z,1.10
2022-10-06T15:36:24.925Z,0.93
2022-10-06T15:39:29.949Z,0.83
2022-10-06T15:42:31.884Z,0.65
2022-10-06T15:45:34.165Z,0.80
2022-10-06T15:48:36.176Z,0.68
2022-10-06T15:51:48.770Z,0.37
2022-10-06T15:54:51.064Z,0.63
2022-10-06T15:57:53.074Z,0.90
2022-10-06T16:00:55.342Z,0.80
2022-10-06T16:03:59.371Z,0.45
2022-10-06T16:07:03.531Z,1.00
2022-10-06T16:10:06.792Z,0.93
2022-10-06T16:13:09.745Z,0.98
2022-10-06T16:16:11.809Z,0.68
2022-10-06T16:19:14.999Z,0.38
2022-10-06T16:22:18.560Z,1.00
2022-10-06T16:25:20.520Z,0.70
2022-10-06T16:28:22.618Z,2.15
2022-10-06T16:31:24.876Z,4.68
2022-10-06T16:34:26.979Z,4.97
2022-10-06T16:37:28.991Z,3.30
2022-10-06T16:40:30.963Z,1.40
2022-10-06T16:43:38.339Z,1.92
2022-10-06T16:46:40.626Z,2.38
2022-10-06T16:49:42.641Z,3.33
2022-10-06T16:52:44.566Z,3.67
2022-10-06T16:55:46.536Z,2.33
2022-10-06T16:58:53.335Z,3.85
2022-10-06T17:01:55.383Z,1.90
2022-10-06T17:04:57.366Z,2.17
2022-10-06T17:07:59.364Z,1.50
2022-10-06T17:11:18.262Z,2.72
2022-10-06T17:14:21.580Z,2.05
2022-10-06T17:17:23.756Z,1.67
2022-10-06T17:20:25.740Z,1.58
2022-10-06T17:23:28.745Z,1.90
2022-10-06T17:26:33.274Z,2.17
2022-10-06T17:29:35.463Z,2.25
2022-10-06T17:32:38.384Z,2.28
2022-10-06T17:35:40.517Z,1.90
2022-10-06T17:38:45.385Z,2.17
2022-10-06T17:41:49.010Z,1.57
2022-10-06T17:44:52.685Z,2.38
2022-10-06T17:47:54.652Z,1.48
2022-10-06T17:51:01.023Z,1.88
2022-10-06T17:54:05.078Z,1.47
2022-10-06T17:57:07.104Z,1.42
2022-10-06T18:00:09.957Z,1.30
2022-10-06T18:03:14.025Z,1.35
2022-10-06T18:06:17.587Z,1.90
2022-10-06T18:09:20.074Z,1.47
2022-10-06T18:12:22.204Z,2.53
2022-10-06T18:15:24.127Z,1.88
2022-10-06T18:18:26.447Z,1.50
2022-10-06T18:21:35.258Z,2.90
2022-10-06T18:24:37.273Z,2.23
2022-10-06T18:27:39.553Z,1.53
2022-10-06T18:30:41.735Z,1.75
2022-10-06T18:36:10.221Z,2.17
2022-10-06T18:37:07.500Z,1.67
2022-10-06T18:40:11.186Z,1.53
2022-10-06T18:43:13.284Z,1.10
2022-10-06T18:46:35.757Z,1.05
2022-10-06T18:49:37.760Z,1.65
2022-10-06T18:52:43.621Z,1.75
2022-10-06T18:55:45.565Z,2.87
2022-10-06T18:58:48.181Z,4.18
2022-10-06T19:01:50.999Z,2.13
2022-10-06T19:04:53.217Z,2.75
2022-10-06T19:07:55.899Z,1.75
2022-10-06T19:11:24.545Z,3.87
2022-10-06T19:14:36.507Z,3.03
2022-10-06T19:17:40.936Z,3.38
2022-10-06T19:20:52.186Z,2.95
2022-10-06T19:23:54.102Z,2.88
2022-10-06T19:26:57.225Z,2.17
2022-10-06T19:29:59.529Z,2.55
2022-10-06T19:33:01.516Z,2.17
2022-10-06T19:36:03.978Z,2.50
2022-10-06T19:39:11.079Z,1.65
2022-10-06T19:42:33.948Z,1.60
2022-10-06T19:45:35.904Z,1.38
2022-10-06T19:48:38.233Z,1.60
2022-10-06T19:51:41.319Z,2.08
2022-10-06T19:54:43.410Z,2.40
2022-10-06T19:57:45.662Z,1.70
2022-10-06T20:00:48.786Z,2.28
2022-10-06T20:03:50.993Z,2.50
2022-10-06T20:06:53.094Z,2.20
2022-10-06T20:09:55.588Z,1.67
2022-10-06T20:12:58.684Z,0.83
2022-10-06T20:16:01.983Z,1.80
2022-10-06T20:19:05.514Z,1.23
2022-10-06T20:22:07.435Z,0.80
2022-10-06T20:25:10.410Z,1.27
2022-10-06T20:28:13.313Z,1.60
2022-10-06T20:31:20.906Z,1.80
2022-10-06T20:34:25.365Z,1.40
2022-10-06T20:37:27.447Z,1.58
2022-10-06T20:40:47.437Z,1.25
2022-10-06T20:43:50.069Z,0.80
2022-10-06T20:46:54.028Z,0.77
2022-10-06T20:49:56.141Z,0.85
2022-10-06T20:52:58.539Z,1.10
2022-10-06T20:56:00.434Z,1.17
2022-10-06T20:59:02.902Z,0.80
2022-10-06T21:02:05.916Z,0.63
2022-10-06T21:05:09.006Z,1.15
2022-10-06T21:08:11.927Z,1.13
2022-10-06T21:11:18.948Z,1.08
2022-10-06T21:14:20.822Z,1.23
2022-10-06T21:17:22.828Z,1.10
2022-10-06T21:20:25.762Z,0.63
2022-10-06T21:23:28.662Z,1.00
2022-10-06T21:26:30.874Z,1.10
2022-10-06T21:29:33.311Z,0.73
2022-10-06T21:32:35.214Z,0.80
2022-10-06T21:35:37.140Z,0.70
2022-10-06T21:38:39.965Z,1.02
2022-10-06T21:41:42.038Z,0.73
2022-10-06T21:44:44.262Z,1.20
2022-10-06T21:47:46.556Z,1.48
2022-10-06T21:50:54.566Z,1.65
2022-10-06T21:53:57.683Z,1.17
2022-10-06T21:56:59.657Z,0.40
2022-10-06T22:00:01.766Z,1.30
2022-10-06T22:03:06.431Z,0.77
2022-10-06T22:06:09.279Z,0.82
2022-10-06T22:09:15.885Z,1.00
2022-10-06T22:12:17.829Z,0.70
2022-10-06T22:15:19.848Z,1.57
2022-10-06T22:18:21.764Z,1.23
2022-10-06T22:21:43.694Z,0.75
2022-10-06T22:24:45.642Z,1.30
2022-10-06T22:27:47.646Z,1.15
2022-10-06T22:30:49.543Z,0.90
2022-10-06T22:33:57.131Z,2.30
2022-10-06T22:36:59.062Z,1.73
2022-10-06T22:40:05.356Z,1.17
2022-10-06T22:43:09.978Z,0.85
2022-10-06T22:46:12.373Z,1.33
2022-10-06T22:49:14.386Z,1.33
2022-10-06T22:52:16.409Z,1.75
2022-10-06T22:55:18.322Z,0.90
2022-10-06T22:58:20.302Z,0.90
2022-10-06T23:01:22.849Z,1.10
2022-10-06T23:04:24.779Z,1.02
2022-10-06T23:07:26.654Z,1.98
2022-10-06T23:10:30.476Z,0.77
2022-10-06T23:13:32.597Z,0.73
2022-10-06T23:16:34.634Z,1.20
2022-10-06T23:19:36.601Z,0.68
2022-10-06T23:22:38.678Z,0.85
2022-10-06T23:25:40.673Z,1.08
2022-10-06T23:28:43.069Z,0.90
2022-10-06T23:31:45.414Z,1.00
2022-10-06T23:34:47.420Z,1.50
2022-10-06T23:37:49.323Z,1.73
2022-10-06T23:40:51.603Z,1.10
2022-10-06T23:43:53.587Z,0.60
2022-10-06T23:46:55.516Z,0.63
2022-10-06T23:49:57.642Z,1.38
2022-10-06T23:52:59.625Z,1.08
2022-10-06T23:56:01.974Z,0.80
2022-10-06T23:59:04.405Z,1.42
